Time;durP1;ratioP1;P1;durP2;ratioP2;P2;SDS_P1;SDS_P2;PMS_P1;PMS_P2;Temp;Humidity;BMP_temperature;BMP_pressure;BME280_temperature;BME280_humidity;BME280_pressure;Samples;Min_cycle;Max_cycle;Signal;HPM_P1;HPM_P2
2022/01/13 00:01:55;;;;;;;15.30;14.00;;;;;;;-1.31;60.86;96273.09;5076445;28;20201;-64
2022/01/13 00:04:23;;;;;;;16.20;14.73;;;;;;;-1.29;60.83;96271.78;5075147;28;20617;-64
2022/01/13 00:06:50;;;;;;;15.30;14.00;;;;;;;-1.29;60.43;96279.91;5075378;28;20207;-64
2022/01/13 00:09:17;;;;;;;16.70;15.20;;;;;;;-1.29;60.41;96282.63;5074648;28;20198;-64
2022/01/13 00:11:46;;;;;;;16.48;14.98;;;;;;;-1.32;60.47;96279.59;5076010;28;20359;-64
2022/01/13 00:14:38;;;;;;;16.67;15.23;;;;;;;-1.30;60.39;96294.53;5075367;28;20200;-64
2022/01/13 00:20:11;;;;;;;16.35;14.95;;;;;;;-1.29;60.26;96295.34;5075386;28;20193;-65
2022/01/13 00:22:51;;;;;;;16.85;15.25;;;;;;;-1.35;59.68;96299.03;5075794;28;20303;-66
2022/01/13 00:25:20;;;;;;;16.35;14.93;;;;;;;-1.39;60.02;96308.72;5074944;28;20330;-65
2022/01/13 00:27:54;;;;;;;16.90;15.43;;;;;;;-1.40;60.13;96312.50;5075546;28;20256;-65
2022/01/13 00:30:21;;;;;;;17.88;16.27;;;;;;;-1.42;60.19;96304.59;5075788;28;20193;-65
2022/01/13 00:32:49;;;;;;;18.42;16.83;;;;;;;-1.46;59.93;96312.41;5075811;28;20184;-65
2022/01/13 00:35:17;;;;;;;18.48;16.70;;;;;;;-1.56;59.90;96324.94;5075736;28;20211;-64
2022/01/13 00:37:44;;;;;;;17.73;16.08;;;;;;;-1.67;60.44;96323.13;5075057;28;20204;-64
2022/01/13 00:40:12;;;;;;;18.58;16.95;;;;;;;-1.71;60.41;96323.66;5074673;28;20200;-64
2022/01/13 00:42:38;;;;;;;17.48;15.88;;;;;;;-1.68;60.19;96325.03;5075475;28;20227;-64
2022/01/13 00:45:07;;;;;;;19.17;17.45;;;;;;;-1.73;60.37;96333.88;5075155;28;20400;-64
2022/01/13 00:47:36;;;;;;;18.17;16.58;;;;;;;-1.78;60.43;96323.00;5075496;28;20208;-64
2022/01/13 00:50:04;;;;;;;18.92;17.23;;;;;;;-1.78;60.30;96325.69;5075365;28;20208;-64
2022/01/13 00:52:31;;;;;;;18.05;16.40;;;;;;;-1.74;60.26;96326.03;5074668;28;20201;-64
2022/01/13 00:55:01;;;;;;;19.67;17.88;;;;;;;-1.72;60.37;96332.81;5075336;28;20186;-64
2022/01/13 00:57:31;;;;;;;18.85;17.25;;;;;;;-1.73;60.28;96333.88;5075399;28;20255;-64
2022/01/13 00:59:58;;;;;;;19.95;18.05;;;;;;;-1.70;60.04;96335.28;5074390;28;20197;-64
2022/01/13 01:02:25;;;;;;;19.35;17.65;;;;;;;-1.77;60.54;96348.16;5074492;28;20221;-64
2022/01/13 01:04:52;;;;;;;19.85;18.05;;;;;;;-1.87;60.30;96347.97;5074398;28;20204;-64
2022/01/13 01:07:20;;;;;;;19.27;17.67;;;;;;;-1.88;60.38;96344.44;5074066;28;20205;-64
2022/01/13 01:09:49;;;;;;;18.52;16.90;;;;;;;-1.85;60.34;96337.69;5075126;28;20200;-65
2022/01/13 01:12:18;;;;;;;18.50;16.85;;;;;;;-1.87;60.21;96343.38;5074372;28;20205;-65
2022/01/13 01:14:49;;;;;;;18.35;16.63;;;;;;;-1.96;60.17;96347.53;5074445;28;20197;-64
2022/01/13 01:17:16;;;;;;;18.77;17.15;;;;;;;-1.88;60.29;96354.44;5075503;28;20196;-65
2022/01/13 01:19:47;;;;;;;19.83;17.98;;;;;;;-1.87;59.74;96356.06;5074278;28;20299;-65
2022/01/13 01:22:38;;;;;;;20.05;18.15;;;;;;;-1.94;59.71;96351.63;5076863;28;20181;-65
2022/01/13 01:25:36;;;;;;;19.33;17.52;;;;;;;-1.96;60.15;96344.84;5079301;28;20247;-65
2022/01/13 01:28:03;;;;;;;18.95;17.25;;;;;;;-1.94;59.75;96343.50;5078267;28;20231;-65
2022/01/13 01:30:36;;;;;;;19.77;17.98;;;;;;;-1.97;59.64;96354.81;5079367;28;20193;-65
2022/01/13 01:33:03;;;;;;;19.50;17.70;;;;;;;-2.02;59.86;96352.03;5078128;28;20228;-65
2022/01/13 01:35:30;;;;;;;19.80;18.00;;;;;;;-2.04;60.19;96351.44;5078388;28;20200;-65
2022/01/13 01:37:57;;;;;;;19.23;17.52;;;;;;;-2.07;60.09;96349.25;5078803;28;20203;-65
2022/01/13 01:40:25;;;;;;;19.40;17.60;;;;;;;-2.08;59.86;96352.97;5077752;28;20196;-65
2022/01/13 01:42:52;;;;;;;19.02;17.40;;;;;;;-2.12;60.37;96353.72;5078877;28;20238;-64
2022/01/13 01:45:19;;;;;;;19.42;17.63;;;;;;;-2.11;59.85;96350.75;5078873;28;20196;-64
2022/01/13 01:47:50;;;;;;;19.20;17.40;;;;;;;-2.10;60.03;96348.91;5078911;28;20223;-64
2022/01/13 01:50:20;;;;;;;19.08;17.38;;;;;;;-2.13;59.80;96349.38;5077771;28;20204;-64
2022/01/13 01:52:48;;;;;;;18.77;17.02;;;;;;;-2.19;59.88;96353.84;5078523;28;20218;-64
2022/01/13 01:55:15;;;;;;;19.30;17.60;;;;;;;-2.15;60.15;96346.09;5078925;28;20193;-64
2022/01/13 01:57:45;;;;;;;20.17;18.38;;;;;;;-2.14;59.64;96340.44;5077546;28;20197;-64
2022/01/13 02:00:14;;;;;;;20.65;18.77;;;;;;;-2.17;59.91;96343.63;5077653;28;20193;-64
2022/01/13 02:02:41;;;;;;;19.52;17.73;;;;;;;-2.15;59.80;96343.38;5078693;28;20205;-64
2022/01/13 02:05:08;;;;;;;18.77;17.17;;;;;;;-2.22;60.15;96336.22;5077499;28;20211;-64
2022/01/13 02:07:35;;;;;;;19.52;17.73;;;;;;;-2.12;60.10;96341.00;5078418;28;20193;-64
2022/01/13 02:10:02;;;;;;;19.65;17.90;;;;;;;-2.14;60.03;96334.19;5077989;28;20181;-64
2022/01/13 02:12:35;;;;;;;20.02;18.17;;;;;;;-2.13;59.69;96328.56;5078061;28;20189;-64
2022/01/13 02:15:30;;;;;;;19.45;17.65;;;;;;;-2.13;59.34;96336.69;5078030;28;20192;-64
2022/01/13 02:17:58;;;;;;;19.50;17.70;;;;;;;-2.09;59.47;96339.72;5077928;28;20196;-64
2022/01/13 02:20:41;;;;;;;20.35;18.45;;;;;;;-2.08;59.16;96347.56;5077911;28;20201;-64
2022/01/13 02:23:08;;;;;;;19.90;18.15;;;;;;;-2.10;59.21;96338.91;5078026;28;20217;-64
2022/01/13 02:25:35;;;;;;;19.38;17.48;;;;;;;-2.17;59.36;96345.53;5078104;28;20200;-64
2022/01/13 02:28:01;;;;;;;19.42;17.63;;;;;;;-2.14;59.68;96328.78;5076779;28;20233;-64
2022/01/13 02:30:28;;;;;;;19.48;17.77;;;;;;;-2.15;59.18;96343.38;5077671;28;20181;-64
2022/01/13 02:32:55;;;;;;;19.50;17.70;;;;;;;-2.25;59.23;96339.44;5076834;28;20197;-64
2022/01/13 02:35:22;;;;;;;18.98;17.27;;;;;;;-2.36;59.24;96340.31;5076996;28;20200;-64
2022/01/13 02:37:50;;;;;;;18.92;17.23;;;;;;;-2.36;59.60;96342.16;5076979;28;20197;-64
2022/01/13 02:40:17;;;;;;;18.90;17.20;;;;;;;-2.33;59.59;96342.50;5077784;28;20204;-64
2022/01/13 02:42:44;;;;;;;20.20;18.33;;;;;;;-2.27;59.59;96355.06;5077332;28;20217;-64
2022/01/13 02:45:18;;;;;;;19.65;17.85;;;;;;;-2.26;59.77;96355.88;5076819;28;20241;-64
2022/01/13 02:50:28;;;;;;;19.35;17.55;;;;;;;-2.20;58.99;96352.22;5067161;28;20209;-64
2022/01/13 02:52:56;;;;;;;19.52;17.75;;;;;;;-2.18;59.54;96347.38;5077736;28;20199;-65
2022/01/13 02:55:24;;;;;;;19.02;17.23;;;;;;;-2.15;59.08;96346.91;5076753;28;20205;-65
2022/01/13 02:57:51;;;;;;;18.20;16.60;;;;;;;-2.22;58.57;96338.94;5077293;28;20182;-65
2022/01/13 03:00:18;;;;;;;17.70;16.10;;;;;;;-2.26;58.37;96343.19;5076686;28;20208;-65
2022/01/13 03:02:47;;;;;;;18.45;16.80;;;;;;;-2.30;58.72;96338.50;5077381;28;20195;-65
2022/01/13 03:05:15;;;;;;;17.80;16.20;;;;;;;-2.43;59.07;96340.44;5076936;28;20197;-65
2022/01/13 03:07:43;;;;;;;18.48;16.73;;;;;;;-2.42;58.78;96342.06;5077292;28;20178;-65
2022/01/13 03:10:12;;;;;;;19.15;17.45;;;;;;;-2.40;59.07;96338.28;5076872;28;20590;-65
2022/01/13 03:12:43;;;;;;;18.30;16.60;;;;;;;-2.36;58.79;96337.59;5076999;28;20193;-65
2022/01/13 03:15:10;;;;;;;17.23;15.73;;;;;;;-2.39;58.78;96332.66;5077052;28;20220;-65
2022/01/13 03:17:36;;;;;;;17.17;15.73;;;;;;;-2.41;58.27;96332.06;5077057;28;20519;-65
2022/01/13 03:20:05;;;;;;;17.13;15.63;;;;;;;-2.40;57.95;96328.31;5077218;28;20193;-65
2022/01/13 03:22:31;;;;;;;17.88;16.13;;;;;;;-2.39;57.65;96338.06;5076925;28;20601;-65
2022/01/13 03:24:59;;;;;;;17.77;16.17;;;;;;;-2.38;57.63;96334.31;5075781;28;20185;-64
2022/01/13 03:27:34;;;;;;;17.45;15.90;;;;;;;-2.42;57.77;96343.94;5075285;28;20274;-64
2022/01/13 03:30:03;;;;;;;16.83;15.32;;;;;;;-2.45;57.47;96341.72;5076503;28;20228;-64
2022/01/13 03:32:30;;;;;;;16.55;15.05;;;;;;;-2.46;57.44;96342.78;5075892;28;20255;-64
2022/01/13 03:34:57;;;;;;;16.77;15.27;;;;;;;-2.51;57.31;96337.28;5077049;28;20201;-64
2022/01/13 03:37:23;;;;;;;16.33;15.02;;;;;;;-2.52;57.06;96344.56;5076554;28;20185;-64
2022/01/13 03:39:50;;;;;;;15.77;14.38;;;;;;;-2.54;57.33;96352.09;5076776;28;20196;-64
2022/01/13 03:42:17;;;;;;;16.58;15.10;;;;;;;-2.56;56.93;96354.22;5076823;28;20217;-64
2022/01/13 03:44:45;;;;;;;16.23;14.82;;;;;;;-2.54;57.37;96348.56;5075706;28;20300;-64
2022/01/13 03:47:13;;;;;;;16.45;14.95;;;;;;;-2.54;56.95;96349.41;5076875;28;20258;-65
2022/01/13 03:49:40;;;;;;;15.75;14.35;;;;;;;-2.55;57.12;96345.03;5075803;28;20509;-65
2022/01/13 03:53:02;;;;;;;15.73;14.32;;;;;;;-2.59;57.14;96346.56;5075543;28;20205;-64
2022/01/13 03:56:04;;;;;;;15.05;13.75;;;;;;;-2.54;56.95;96344.00;5075786;28;20676;-64
2022/01/13 03:59:16;;;;;;;16.48;14.98;;;;;;;-2.51;56.78;96351.59;5075367;28;20197;-65
2022/01/13 04:02:06;;;;;;;15.30;13.77;;;;;;;-2.49;57.05;96345.97;5075309;28;20243;-64
2022/01/13 04:04:35;;;;;;;15.85;14.45;;;;;;;-2.52;56.53;96347.25;5075628;28;20224;-65
2022/01/13 04:07:08;;;;;;;15.80;14.40;;;;;;;-2.58;56.88;96359.00;5076231;28;20185;-64
2022/01/13 04:10:12;;;;;;;16.63;15.13;;;;;;;-2.57;56.89;96366.06;5075729;28;20185;-64
2022/01/13 04:12:41;;;;;;;16.58;15.18;;;;;;;-2.60;56.80;96368.44;5075124;28;20283;-64
2022/01/13 04:15:11;;;;;;;16.63;15.13;;;;;;;-2.58;57.38;96379.81;5075058;28;20193;-65
2022/01/13 04:17:40;;;;;;;15.82;14.43;;;;;;;-2.55;57.15;96373.94;5075886;28;20188;-65
2022/01/13 04:20:09;;;;;;;16.33;14.82;;;;;;;-2.54;56.89;96378.25;5075492;28;20194;-64
2022/01/13 04:22:36;;;;;;;16.25;14.65;;;;;;;-2.54;57.01;96383.66;5076045;28;20185;-64
2022/01/13 04:25:03;;;;;;;15.80;14.48;;;;;;;-2.58;56.30;96386.03;5075291;28;20216;-65
2022/01/13 04:27:36;;;;;;;15.95;14.65;;;;;;;-2.59;56.69;96394.38;5075577;28;20236;-65
2022/01/13 04:30:23;;;;;;;16.23;14.73;;;;;;;-2.66;57.10;96395.31;5075626;28;20211;-67
2022/01/13 04:32:51;;;;;;;15.68;14.27;;;;;;;-2.69;56.95;96394.97;5075699;28;20195;-66
2022/01/13 04:35:19;;;;;;;14.85;13.55;;;;;;;-2.73;56.66;96399.22;5074801;28;20185;-65
2022/01/13 04:37:47;;;;;;;16.15;14.63;;;;;;;-2.75;57.34;96393.22;5074793;28;20207;-65
2022/01/13 04:40:14;;;;;;;15.35;14.05;;;;;;;-2.75;56.62;96388.66;5074507;28;20304;-65
2022/01/13 04:42:43;;;;;;;16.27;14.75;;;;;;;-2.77;56.87;96388.06;5075563;28;20181;-65
2022/01/13 04:45:10;;;;;;;15.00;13.70;;;;;;;-2.79;56.78;96382.09;5075434;28;20205;-65
2022/01/13 04:47:37;;;;;;;14.77;13.50;;;;;;;-2.85;57.06;96374.91;5075811;28;20219;-65
2022/01/13 04:50:06;;;;;;;15.02;13.73;;;;;;;-2.82;57.00;96379.84;5075158;28;20208;-65
2022/01/13 04:52:33;;;;;;;14.73;13.43;;;;;;;-2.78;57.06;96380.19;5075510;28;20201;-65
2022/01/13 04:55:08;;;;;;;15.15;13.75;;;;;;;-2.82;56.74;96389.84;5075301;28;20200;-65
2022/01/13 04:57:34;;;;;;;15.20;13.90;;;;;;;-2.84;56.87;96386.53;5075561;28;20200;-65
2022/01/13 05:00:01;;;;;;;15.07;13.68;;;;;;;-2.79;56.89;96390.19;5074291;28;20652;-65
2022/01/13 05:02:28;;;;;;;11.75;10.50;;;;;;;-2.80;56.76;96385.81;5075350;28;20185;-65
2022/01/13 05:04:55;;;;;;;13.65;11.75;;;;;;;-2.80;57.29;96377.72;5074510;28;20212;-65
2022/01/13 05:07:23;;;;;;;11.77;10.57;;;;;;;-2.73;56.42;96391.09;5074527;28;20627;-65
2022/01/13 05:09:50;;;;;;;11.30;10.15;;;;;;;-2.78;56.50;96388.31;5074411;28;20196;-65
2022/01/13 05:12:18;;;;;;;14.02;12.85;;;;;;;-2.75;56.51;96402.16;5074403;28;20201;-65
2022/01/13 05:14:47;;;;;;;15.27;13.80;;;;;;;-2.73;56.05;96400.03;5074894;28;20193;-64
2022/01/13 05:17:44;;;;;;;14.02;12.88;;;;;;;-2.73;55.94;96410.81;5074779;28;20204;-65
2022/01/13 05:20:13;;;;;;;13.77;12.57;;;;;;;-2.71;55.96;96402.50;5074794;28;20208;-65
2022/01/13 05:22:41;;;;;;;12.30;11.32;;;;;;;-2.72;55.57;96396.28;5075284;28;20189;-64
2022/01/13 05:25:09;;;;;;;12.45;11.40;;;;;;;-2.75;55.99;96404.84;5074898;28;20255;-64
2022/01/13 05:27:36;;;;;;;14.30;13.10;;;;;;;-2.76;56.11;96407.78;5074711;28;20233;-64
2022/01/13 05:30:04;;;;;;;13.55;12.35;;;;;;;-2.78;55.68;96405.31;5074675;28;20193;-65
2022/01/13 05:32:32;;;;;;;13.45;12.15;;;;;;;-2.75;55.56;96412.13;5074155;28;20185;-64
2022/01/13 05:34:58;;;;;;;12.80;11.70;;;;;;;-2.85;55.36;96418.13;5074674;28;20525;-65
2022/01/13 05:37:25;;;;;;;12.65;11.55;;;;;;;-2.81;55.34;96423.88;5075375;28;20190;-65
2022/01/13 05:39:53;;;;;;;13.75;12.55;;;;;;;-2.81;55.25;96424.69;5074913;28;20189;-65
2022/01/13 05:42:20;;;;;;;13.00;11.90;;;;;;;-2.80;55.83;96428.22;5074003;28;20193;-65
2022/01/13 05:44:47;;;;;;;13.20;12.00;;;;;;;-2.78;55.69;96436.91;5075030;28;20632;-65
2022/01/13 05:47:15;;;;;;;13.50;12.40;;;;;;;-2.84;55.81;96441.34;5074891;28;20189;-65
2022/01/13 05:49:42;;;;;;;13.85;12.65;;;;;;;-2.87;55.85;96436.41;5075032;28;20189;-65
2022/01/13 05:52:10;;;;;;;14.23;13.02;;;;;;;-2.83;56.22;96437.63;5074759;28;20186;-65
2022/01/13 05:54:37;;;;;;;14.75;13.45;;;;;;;-2.81;55.98;96438.19;5074802;28;20200;-65
2022/01/13 05:57:06;;;;;;;14.50;13.20;;;;;;;-2.84;55.90;96427.84;5074364;28;20199;-64
2022/01/13 05:59:34;;;;;;;15.05;13.75;;;;;;;-2.82;56.10;96435.75;5074787;28;20186;-66
2022/01/13 06:02:01;;;;;;;15.75;14.35;;;;;;;-2.79;56.07;96443.38;5073571;28;20454;-65
2022/01/13 06:04:28;;;;;;;14.52;13.25;;;;;;;-2.82;56.18;96436.56;5074342;28;20213;-65
2022/01/13 06:06:55;;;;;;;13.65;12.45;;;;;;;-2.75;55.92;96444.53;5074741;28;20260;-65
2022/01/13 06:09:22;;;;;;;14.82;13.52;;;;;;;-2.70;55.52;96445.47;5077827;28;20208;-66
2022/01/13 06:11:56;;;;;;;14.27;13.07;;;;;;;-2.82;55.95;96452.75;5079571;28;20196;-66
2022/01/13 06:14:25;;;;;;;14.68;13.30;;;;;;;-2.78;56.16;96447.72;5077920;28;20185;-66
2022/01/13 06:16:51;;;;;;;14.20;12.85;;;;;;;-2.77;55.78;96455.56;5078925;28;20236;-66
2022/01/13 06:19:18;;;;;;;14.32;13.02;;;;;;;-2.83;55.76;96452.97;5079060;28;20195;-66
2022/01/13 06:21:45;;;;;;;14.50;13.20;;;;;;;-2.83;55.60;96459.22;5077612;28;20197;-66
2022/01/13 06:24:12;;;;;;;13.80;12.50;;;;;;;-2.81;55.42;96459.78;5077989;28;20204;-65
2022/01/13 06:26:39;;;;;;;13.57;12.38;;;;;;;-2.77;55.35;96466.38;5077461;28;20197;-64
2022/01/13 06:29:06;;;;;;;14.93;13.63;;;;;;;-2.74;55.37;96473.19;5078160;28;20263;-65
2022/01/13 06:31:34;;;;;;;13.65;12.48;;;;;;;-2.85;54.50;96468.59;5078064;28;20197;-65
2022/01/13 06:34:01;;;;;;;13.20;12.00;;;;;;;-2.92;55.16;96480.34;5077791;28;20594;-65
2022/01/13 06:36:28;;;;;;;15.30;14.00;;;;;;;-2.96;54.75;96481.84;5076785;28;20207;-65
2022/01/13 06:38:55;;;;;;;13.57;12.38;;;;;;;-2.99;54.80;96479.63;5078040;28;20205;-65
2022/01/13 06:41:22;;;;;;;14.10;12.90;;;;;;;-3.00;55.22;96483.38;5077363;28;20208;-66
2022/01/13 06:43:49;;;;;;;13.45;12.02;;;;;;;-2.95;55.42;96488.91;5077751;28;20219;-65
2022/01/13 06:46:16;;;;;;;14.02;12.77;;;;;;;-2.92;55.01;96490.31;5076804;28;20197;-65
2022/01/13 06:48:45;;;;;;;13.93;12.73;;;;;;;-2.96;55.01;96491.84;5077878;28;20204;-66
2022/01/13 06:51:12;;;;;;;13.07;11.88;;;;;;;-2.98;55.12;96497.50;5077646;28;20198;-65
2022/01/13 06:53:39;;;;;;;13.38;11.98;;;;;;;-3.02;54.73;96498.97;5077675;28;20392;-65
2022/01/13 06:56:06;;;;;;;13.18;12.07;;;;;;;-2.95;54.41;96499.69;5077449;28;20177;-65
2022/01/13 06:58:33;;;;;;;12.60;11.48;;;;;;;-2.99;53.74;96508.50;5077642;28;20173;-64
2022/01/13 07:01:00;;;;;;;13.35;12.15;;;;;;;-3.03;54.28;96518.13;5077739;28;20201;-64
2022/01/13 07:03:27;;;;;;;12.48;11.48;;;;;;;-2.99;53.68;96520.13;5077487;28;20197;-65
2022/01/13 07:05:55;;;;;;;12.18;11.05;;;;;;;-3.08;53.17;96515.31;5077287;28;20304;-64
2022/01/13 07:08:22;;;;;;;11.90;10.90;;;;;;;-3.18;53.51;96513.97;5077256;28;20188;-65
2022/01/13 07:10:49;;;;;;;12.30;11.27;;;;;;;-3.13;53.94;96529.47;5077001;28;20610;-65
2022/01/13 07:13:16;;;;;;;12.40;11.30;;;;;;;-3.10;53.92;96536.28;5077202;28;20193;-65
2022/01/13 07:15:45;;;;;;;12.93;11.82;;;;;;;-3.08;53.82;96534.19;5077214;28;20181;-65
2022/01/13 07:18:12;;;;;;;12.40;11.38;;;;;;;-3.07;53.53;96527.75;5076209;28;20229;-65
2022/01/13 07:20:42;;;;;;;13.07;11.88;;;;;;;-3.01;53.57;96533.03;5075078;28;20200;-64
2022/01/13 07:23:11;;;;;;;12.57;11.48;;;;;;;-2.98;53.68;96529.88;5076424;28;20192;-64
2022/01/13 07:25:38;;;;;;;14.50;13.10;;;;;;;-2.98;54.02;96534.44;5076683;28;20205;-64
2022/01/13 07:28:05;;;;;;;12.93;11.82;;;;;;;-2.95;53.54;96529.41;5076816;28;20235;-64
2022/01/13 07:30:32;;;;;;;13.10;11.98;;;;;;;-2.92;53.28;96536.22;5076807;28;20193;-65
2022/01/13 07:32:59;;;;;;;13.65;12.48;;;;;;;-3.04;53.38;96546.19;5076981;28;20182;-64
2022/01/13 07:35:26;;;;;;;13.60;12.43;;;;;;;-3.15;53.08;96534.28;5075898;28;20200;-64
2022/01/13 07:37:53;;;;;;;12.07;11.05;;;;;;;-3.13;52.99;96540.25;5076685;28;20197;-64
2022/01/13 07:40:21;;;;;;;12.60;11.50;;;;;;;-3.18;52.95;96540.16;5075490;28;20200;-65
2022/01/13 07:42:48;;;;;;;12.60;11.48;;;;;;;-3.25;53.39;96548.34;5076586;28;20196;-65
2022/01/13 07:45:18;;;;;;;12.98;11.73;;;;;;;-3.27;54.15;96550.47;5075691;28;20209;-65
2022/01/13 07:47:45;;;;;;;12.93;11.82;;;;;;;-3.21;53.82;96554.91;5076728;28;20201;-65
2022/01/13 07:50:13;;;;;;;12.35;11.35;;;;;;;-3.04;53.91;96565.06;5076599;28;20186;-65
2022/01/13 07:52:40;;;;;;;12.82;11.73;;;;;;;-3.04;53.10;96565.88;5076805;28;20201;-64
2022/01/13 07:55:08;;;;;;;13.02;11.82;;;;;;;-3.04;53.41;96570.47;5076619;28;20193;-64
2022/01/13 07:57:36;;;;;;;12.70;11.60;;;;;;;-2.94;53.40;96586.94;5075656;28;20208;-64
2022/01/13 08:00:04;;;;;;;13.00;11.93;;;;;;;-2.99;52.53;96576.81;5075509;28;20201;-64
2022/01/13 08:02:31;;;;;;;13.40;12.20;;;;;;;-2.99;52.78;96587.59;5076535;28;20195;-64
2022/01/13 08:04:58;;;;;;;13.73;12.63;;;;;;;-2.92;52.64;96592.91;5076213;28;20209;-64
2022/01/13 08:07:25;;;;;;;14.15;12.95;;;;;;;-2.97;52.36;96585.50;5075308;28;20200;-64
2022/01/13 08:09:52;;;;;;;13.15;12.05;;;;;;;-2.96;52.24;96602.53;5076030;28;20203;-64
2022/01/13 08:12:18;;;;;;;12.70;11.52;;;;;;;-2.92;52.55;96601.00;5076416;28;20181;-64
2022/01/13 08:14:47;;;;;;;12.82;11.73;;;;;;;-2.88;52.10;96604.91;5075705;28;20191;-65
2022/01/13 08:19:45;;;;;;;12.95;11.85;;;;;;;-2.93;51.31;96604.78;5075599;28;20534;-65
2022/01/13 08:20:00;;;;;;;13.20;11.90;;;;;;;-2.88;51.61;96614.88;5074568;28;20207;-65
2022/01/13 08:22:27;;;;;;;12.15;11.15;;;;;;;-2.87;51.08;96616.50;5075085;28;20292;-64
2022/01/13 08:24:54;;;;;;;11.75;10.60;;;;;;;-2.89;50.99;96616.75;5075717;28;20208;-65
2022/01/13 08:27:20;;;;;;;11.65;10.55;;;;;;;-2.93;50.61;96624.50;5075942;28;20243;-65
2022/01/13 08:29:49;;;;;;;11.02;10.02;;;;;;;-3.02;50.38;96625.84;5074930;28;20205;-64
2022/01/13 08:32:15;;;;;;;11.73;10.73;;;;;;;-3.10;50.30;96634.28;5074581;28;20196;-64
2022/01/13 08:34:42;;;;;;;11.93;10.82;;;;;;;-3.21;50.57;96630.47;5075403;28;20193;-64
2022/01/13 08:37:09;;;;;;;11.80;10.80;;;;;;;-3.20;51.03;96625.91;5074875;28;20197;-64
2022/01/13 08:39:42;;;;;;;12.77;11.67;;;;;;;-3.09;50.93;96622.44;5074529;28;20435;-67
2022/01/13 08:42:09;;;;;;;11.30;10.30;;;;;;;-3.11;49.97;96615.63;5075564;28;20192;-64
2022/01/13 08:44:36;;;;;;;11.68;10.68;;;;;;;-3.05;50.23;96628.19;5074604;28;20213;-65
2022/01/13 08:47:06;;;;;;;11.15;10.25;;;;;;;-2.97;50.77;96627.88;5074996;28;20204;-65
2022/01/13 08:49:33;;;;;;;10.77;9.88;;;;;;;-2.98;49.03;96624.38;5074543;28;20609;-65
2022/01/13 08:52:00;;;;;;;11.80;10.80;;;;;;;-3.04;49.62;96624.47;5075461;28;20185;-65
2022/01/13 08:54:27;;;;;;;11.50;10.50;;;;;;;-2.99;49.82;96627.28;5075464;28;20196;-65
2022/01/13 08:56:54;;;;;;;11.35;10.35;;;;;;;-3.00;49.78;96623.75;5075337;28;20181;-65
2022/01/13 08:59:21;;;;;;;11.73;10.73;;;;;;;-3.08;50.32;96626.78;5074145;28;20200;-65
2022/01/13 09:01:47;;;;;;;11.10;10.20;;;;;;;-3.03;50.03;96618.00;5074272;28;20197;-65
2022/01/13 09:04:16;;;;;;;11.38;10.38;;;;;;;-3.00;49.52;96617.53;5075301;28;20196;-66
2022/01/13 09:06:42;;;;;;;11.07;10.18;;;;;;;-3.02;50.45;96608.84;5075308;28;20215;-65
2022/01/13 09:09:09;;;;;;;12.25;11.15;;;;;;;-2.92;49.97;96615.34;5075231;28;20181;-65
2022/01/13 09:11:36;;;;;;;12.38;11.27;;;;;;;-2.82;49.53;96613.97;5075296;28;20534;-66
2022/01/13 09:14:03;;;;;;;12.90;11.70;;;;;;;-2.73;49.52;96618.78;5074388;28;20196;-65
2022/01/13 09:16:40;;;;;;;11.48;10.48;;;;;;;-2.74;49.03;96619.84;5074990;28;20209;-65
2022/01/13 09:19:12;;;;;;;11.77;10.77;;;;;;;-2.78;49.75;96615.16;5074391;28;20193;-65
2022/01/13 09:21:43;;;;;;;12.15;11.02;;;;;;;-2.73;49.56;96607.97;5074130;28;20708;-67
2022/01/13 09:24:12;;;;;;;11.88;10.77;;;;;;;-2.66;49.38;96589.78;5074780;28;20186;-66
2022/01/13 09:26:39;;;;;;;12.05;10.88;;;;;;;-2.67;49.60;96584.63;5075003;28;20219;-66
2022/01/13 09:29:07;;;;;;;12.48;11.48;;;;;;;-2.61;49.42;96580.19;5074106;28;20225;-66
2022/01/13 09:31:35;;;;;;;12.30;11.30;;;;;;;-2.59;49.65;96581.59;5074751;28;20177;-66
2022/01/13 09:34:02;;;;;;;12.77;11.68;;;;;;;-2.62;49.73;96581.22;5074141;28;20213;-66
2022/01/13 09:36:29;;;;;;;12.65;11.63;;;;;;;-2.56;49.98;96566.81;5075135;28;20181;-65
2022/01/13 09:38:58;;;;;;;12.90;11.75;;;;;;;-2.51;49.89;96566.91;5074653;28;20486;-65
2022/01/13 09:41:29;;;;;;;12.48;11.38;;;;;;;-2.43;50.40;96567.41;5075055;28;20209;-66
2022/01/13 09:43:56;;;;;;;12.95;11.85;;;;;;;-2.38;49.94;96563.19;5076707;28;20240;-66
2022/01/13 09:46:26;;;;;;;14.50;13.20;;;;;;;-2.35;50.09;96558.13;5079047;28;20213;-66
2022/01/13 09:48:53;;;;;;;14.27;13.00;;;;;;;-2.37;49.93;96554.81;5078338;28;20247;-66
2022/01/13 09:51:21;;;;;;;12.82;11.73;;;;;;;-2.44;49.62;96560.34;5077946;28;20208;-65
2022/01/13 09:53:48;;;;;;;12.45;11.38;;;;;;;-2.56;49.77;96556.81;5078824;28;20246;-65
2022/01/13 09:56:41;;;;;;;12.57;11.48;;;;;;;-2.61;49.48;96547.78;5078403;28;20185;-65
2022/01/13 09:59:08;;;;;;;14.02;12.77;;;;;;;-2.27;50.73;96528.03;5078874;28;20204;-65
2022/01/13 10:01:35;;;;;;;13.07;11.95;;;;;;;-1.60;50.60;96521.31;5078601;28;20197;-65
2022/01/13 10:04:02;;;;;;;13.65;12.55;;;;;;;-0.95;49.33;96517.38;5077669;28;20220;-65
2022/01/13 10:06:29;;;;;;;13.63;12.43;;;;;;;-0.75;47.89;96502.28;5078350;28;20548;-66
2022/01/13 10:08:57;;;;;;;13.85;12.65;;;;;;;-0.40;47.73;96501.22;5078443;28;20195;-66
2022/01/13 10:11:29;;;;;;;14.05;12.82;;;;;;;-0.08;46.31;96497.84;5078167;28;20195;-65
2022/01/13 10:14:14;;;;;;;12.55;11.55;;;;;;;0.09;45.40;96492.38;5077392;28;20287;-66
2022/01/13 10:16:48;;;;;;;13.38;12.18;;;;;;;-0.05;44.27;96491.91;5078398;28;20189;-66
2022/01/13 10:19:29;;;;;;;13.57;12.35;;;;;;;-0.09;45.41;96493.50;5078641;28;20196;-66
2022/01/13 10:21:58;;;;;;;12.50;11.30;;;;;;;0.03;44.81;96472.47;5077829;28;20510;-66
2022/01/13 10:24:26;;;;;;;13.32;12.18;;;;;;;0.07;44.95;96468.19;5077418;28;20625;-66
2022/01/13 10:27:00;;;;;;;12.50;11.45;;;;;;;0.08;45.18;96469.84;5078055;28;20220;-66
2022/01/13 10:29:38;;;;;;;12.93;11.85;;;;;;;0.20;44.61;96469.72;5077302;28;20200;-65
2022/01/13 10:32:06;;;;;;;12.38;11.18;;;;;;;0.22;44.66;96468.41;5077039;28;20201;-66
2022/01/13 10:34:33;;;;;;;12.77;11.68;;;;;;;0.00;44.11;96451.31;5078049;28;20189;-66
2022/01/13 10:37:04;;;;;;;13.20;12.02;;;;;;;-0.09;45.17;96453.63;5077190;28;20582;-65
2022/01/13 10:39:52;;;;;;;12.82;11.73;;;;;;;0.18;45.30;96452.84;5078293;28;20196;-65
2022/01/13 10:45:30;;;;;;;12.50;11.40;;;;;;;0.42;45.13;96443.38;5062007;28;20225;-65
2022/01/13 10:47:58;;;;;;;11.90;10.90;;;;;;;0.64;44.06;96440.63;5077504;28;20244;-65
2022/01/13 10:50:28;;;;;;;12.18;11.07;;;;;;;0.72;43.14;96440.13;5076979;28;20204;-65
2022/01/13 10:52:54;;;;;;;12.40;11.40;;;;;;;0.55;43.13;96433.22;5078028;28;20208;-65
2022/01/13 10:55:23;;;;;;;12.50;11.38;;;;;;;0.48;43.51;96422.53;5077762;28;20204;-65
2022/01/13 10:57:51;;;;;;;11.75;10.75;;;;;;;0.34;43.79;96418.59;5076929;28;20535;-65
2022/01/13 11:00:22;;;;;;;12.88;11.70;;;;;;;0.20;44.16;96427.13;5077462;28;20590;-65
2022/01/13 11:03:01;;;;;;;12.98;11.88;;;;;;;0.09;44.51;96440.81;5076881;28;20203;-65
2022/01/13 11:05:28;;;;;;;12.93;11.77;;;;;;;0.04;44.44;96438.88;5076515;28;20208;-65
2022/01/13 11:07:57;;;;;;;13.13;11.93;;;;;;;-0.01;43.75;96442.31;5077370;28;20185;-65
2022/01/13 11:10:24;;;;;;;13.40;12.10;;;;;;;-0.16;45.06;96449.47;5076326;28;20205;-65
2022/01/13 11:12:58;;;;;;;12.32;11.23;;;;;;;-0.11;44.77;96435.94;5076782;28;20205;-65
2022/01/13 11:15:26;;;;;;;13.38;11.90;;;;;;;-0.07;44.42;96437.94;5076437;28;20208;-65
2022/01/13 11:17:56;;;;;;;13.13;11.90;;;;;;;-0.16;44.98;96430.47;5077339;28;20189;-65
2022/01/13 11:20:23;;;;;;;12.30;11.20;;;;;;;0.18;45.32;96432.00;5077721;28;20189;-65
2022/01/13 11:22:52;;;;;;;13.15;11.77;;;;;;;0.68;44.60;96430.88;5076962;28;20186;-65
2022/01/13 11:25:23;;;;;;;12.90;11.80;;;;;;;0.79;43.23;96429.06;5076131;28;20193;-65
2022/01/13 11:27:50;;;;;;;12.95;11.85;;;;;;;0.64;43.63;96428.94;5076910;28;20241;-65
2022/01/13 11:30:18;;;;;;;11.48;10.48;;;;;;;0.56;43.21;96419.34;5076594;28;20497;-65
2022/01/13 11:32:46;;;;;;;13.35;12.15;;;;;;;1.03;43.05;96404.31;5077072;28;20197;-65
2022/01/13 11:35:15;;;;;;;13.25;12.15;;;;;;;1.32;42.86;96405.59;5077091;28;20193;-65
2022/01/13 11:37:43;;;;;;;13.52;12.35;;;;;;;1.85;42.19;96409.19;5076970;28;20197;-65